createdAt,value
2022-07-25T00:00:03.463Z,100.00
2022-07-25T00:02:33.281Z,100.00
2022-07-25T00:05:03.113Z,100.00
2022-07-25T00:07:33.016Z,100.00
2022-07-25T00:10:02.800Z,100.00
2022-07-25T00:12:31.358Z,100.00
2022-07-25T00:15:00.151Z,100.00
2022-07-25T00:17:28.601Z,100.00
2022-07-25T00:19:57.060Z,100.00
2022-07-25T00:22:25.569Z,100.00
2022-07-25T00:24:53.989Z,100.00
2022-07-25T00:27:23.770Z,100.00
2022-07-25T00:29:52.196Z,100.00
2022-07-25T00:32:20.684Z,100.00
2022-07-25T00:34:49.031Z,100.00
2022-07-25T00:37:17.442Z,100.00
2022-07-25T00:39:46.622Z,100.00
2022-07-25T00:42:16.435Z,100.00
2022-07-25T00:44:46.228Z,100.00
2022-07-25T00:47:14.635Z,100.00
2022-07-25T00:49:43.308Z,100.00
2022-07-25T00:52:12.874Z,100.00
2022-07-25T00:54:41.282Z,100.00
2022-07-25T00:57:09.666Z,100.00
2022-07-25T00:59:38.300Z,100.00
2022-07-25T01:02:08.960Z,100.00
2022-07-25T01:04:37.455Z,100.00
2022-07-25T01:07:06.676Z,100.00
2022-07-25T01:09:35.472Z,100.00
2022-07-25T01:12:03.950Z,100.00
2022-07-25T01:14:33.955Z,100.00
2022-07-25T01:17:02.312Z,100.00
2022-07-25T01:19:32.090Z,100.00
2022-07-25T01:22:02.183Z,100.00
2022-07-25T01:24:31.012Z,100.00
2022-07-25T01:26:59.399Z,100.00
2022-07-25T01:29:27.873Z,100.00
2022-07-25T01:31:56.216Z,100.00
2022-07-25T01:34:24.577Z,100.00
2022-07-25T01:36:53.054Z,100.00
2022-07-25T01:39:22.857Z,100.00
2022-07-25T01:41:51.309Z,100.00
2022-07-25T01:44:19.649Z,100.00
2022-07-25T01:46:48.173Z,100.00
2022-07-25T01:49:16.642Z,100.00
2022-07-25T01:51:45.027Z,100.00
2022-07-25T01:54:13.337Z,100.00
2022-07-25T01:56:47.634Z,100.00
2022-07-25T01:59:16.968Z,100.00
2022-07-25T02:01:45.491Z,100.00
2022-07-25T02:04:14.078Z,100.00
2022-07-25T02:06:42.732Z,100.00
2022-07-25T02:09:11.676Z,100.00
2022-07-25T02:11:40.050Z,100.00
2022-07-25T02:14:09.985Z,100.00
2022-07-25T02:16:38.460Z,100.00
2022-07-25T02:19:06.956Z,100.00
2022-07-25T02:21:35.680Z,100.00
2022-07-25T02:24:04.720Z,100.00
2022-07-25T02:26:33.389Z,100.00
2022-07-25T02:29:01.814Z,100.00
2022-07-25T02:31:31.666Z,100.00
2022-07-25T02:34:00.018Z,100.00
2022-07-25T02:36:28.459Z,100.00
2022-07-25T02:38:56.823Z,100.00
2022-07-25T02:41:25.225Z,100.00
2022-07-25T02:43:53.536Z,100.00
2022-07-25T02:46:22.780Z,100.00
2022-07-25T02:48:52.783Z,100.00
2022-07-25T02:51:21.214Z,100.00
2022-07-25T02:53:58.557Z,100.00
2022-07-25T02:56:29.778Z,100.00
2022-07-25T02:58:58.788Z,100.00
2022-07-25T03:01:27.293Z,100.00
2022-07-25T03:03:57.564Z,100.00
2022-07-25T03:06:26.016Z,100.00
2022-07-25T03:08:54.324Z,100.00
2022-07-25T03:11:22.877Z,100.00
2022-07-25T03:13:51.217Z,100.00
2022-07-25T03:16:19.718Z,100.00
2022-07-25T03:18:48.265Z,100.00
2022-07-25T03:21:18.159Z,100.00
2022-07-25T03:23:51.981Z,100.00
2022-07-25T03:26:22.116Z,100.00
2022-07-25T03:28:50.483Z,100.00
2022-07-25T03:31:19.988Z,100.00
2022-07-25T03:33:48.439Z,100.00
2022-07-25T03:36:20.703Z,100.00
2022-07-25T03:38:49.100Z,100.00
2022-07-25T03:41:17.496Z,100.00
2022-07-25T03:43:48.114Z,100.00
2022-07-25T03:46:16.893Z,100.00
2022-07-25T03:48:47.935Z,100.00
2022-07-25T03:51:20.325Z,100.00
2022-07-25T03:54:08.142Z,100.00
2022-07-25T03:56:43.646Z,100.00
2022-07-25T03:59:13.897Z,100.00
2022-07-25T04:01:43.183Z,100.00
2022-07-25T04:04:12.104Z,100.00
2022-07-25T04:06:42.285Z,100.00
2022-07-25T04:09:11.937Z,100.00
2022-07-25T04:11:40.884Z,100.00
2022-07-25T04:14:09.721Z,100.00
2022-07-25T04:16:38.458Z,100.00
2022-07-25T04:19:08.687Z,100.00
2022-07-25T04:21:37.217Z,100.00
2022-07-25T04:24:07.688Z,100.00
2022-07-25T04:26:36.395Z,100.00
2022-07-25T04:29:04.931Z,100.00
2022-07-25T04:31:33.417Z,100.00
2022-07-25T04:34:01.833Z,100.00
2022-07-25T04:36:30.270Z,100.00
2022-07-25T04:38:58.649Z,100.00
2022-07-25T04:41:28.428Z,100.00
2022-07-25T04:43:57.004Z,100.00
2022-07-25T04:46:25.425Z,100.00
2022-07-25T04:48:54.160Z,100.00
2022-07-25T04:51:22.771Z,100.00
2022-07-25T04:53:51.233Z,100.00
2022-07-25T04:56:19.653Z,100.00
2022-07-25T04:58:49.510Z,100.00
2022-07-25T05:01:18.133Z,100.00
2022-07-25T05:03:50.057Z,100.00
2022-07-25T05:06:19.114Z,100.00
2022-07-25T05:08:47.545Z,100.00
2022-07-25T05:11:15.948Z,100.00
2022-07-25T05:13:44.758Z,100.00
2022-07-25T05:16:14.639Z,100.00
2022-07-25T05:18:43.146Z,100.00
2022-07-25T05:21:12.703Z,100.00
2022-07-25T05:23:41.259Z,100.00
2022-07-25T05:26:09.662Z,100.00
2022-07-25T05:28:38.077Z,100.00
2022-07-25T05:31:06.558Z,100.00
2022-07-25T05:33:36.853Z,100.00
2022-07-25T05:36:06.179Z,100.00
2022-07-25T05:38:34.889Z,100.00
2022-07-25T05:41:03.713Z,100.00
2022-07-25T05:43:32.285Z,100.00
2022-07-25T05:46:04.142Z,100.00
2022-07-25T05:48:32.774Z,100.00
2022-07-25T05:51:02.909Z,100.00
2022-07-25T05:53:31.393Z,100.00
2022-07-25T05:55:59.958Z,100.00
2022-07-25T05:58:30.019Z,100.00
2022-07-25T06:00:59.492Z,100.00
2022-07-25T06:03:28.005Z,100.00
2022-07-25T06:05:57.590Z,100.00
2022-07-25T06:08:28.880Z,100.00
2022-07-25T06:10:57.874Z,100.00
2022-07-25T06:13:26.250Z,100.00
2022-07-25T06:15:56.721Z,100.00
2022-07-25T06:18:25.904Z,100.00
2022-07-25T06:20:54.565Z,100.00
2022-07-25T06:23:23.008Z,100.00
2022-07-25T06:25:57.411Z,100.00
2022-07-25T06:28:25.815Z,100.00
2022-07-25T06:30:54.259Z,100.00
2022-07-25T06:33:22.897Z,100.00
2022-07-25T06:35:51.223Z,100.00
2022-07-25T06:38:19.714Z,100.00
2022-07-25T06:40:48.169Z,100.00
2022-07-25T06:43:17.876Z,100.00
2022-07-25T06:45:47.682Z,100.00
2022-07-25T06:48:16.180Z,100.00
2022-07-25T06:50:45.022Z,100.00
2022-07-25T06:53:13.457Z,100.00
2022-07-25T06:55:42.051Z,100.00
2022-07-25T06:58:10.471Z,100.00
2022-07-25T07:00:40.762Z,100.00
2022-07-25T07:03:09.442Z,100.00
2022-07-25T07:05:38.199Z,100.00
2022-07-25T07:08:07.302Z,100.00
2022-07-25T07:10:35.748Z,100.00
2022-07-25T07:13:07.718Z,100.00
2022-07-25T07:15:36.383Z,100.00
2022-07-25T07:18:08.142Z,100.00
2022-07-25T07:20:36.710Z,100.00
2022-07-25T07:23:05.693Z,100.00
2022-07-25T07:25:34.668Z,100.00
2022-07-25T07:28:03.417Z,100.00
2022-07-25T07:30:58.657Z,100.00
2022-07-25T07:33:22.497Z,100.00
2022-07-25T07:35:50.939Z,100.00
2022-07-25T07:38:19.372Z,100.00
2022-07-25T07:40:47.706Z,99.40
2022-07-25T07:43:16.233Z,100.00
2022-07-25T07:45:45.119Z,100.00
2022-07-25T07:48:15.985Z,98.72
2022-07-25T07:50:45.934Z,100.00
2022-07-25T07:53:14.327Z,95.75
2022-07-25T07:55:44.596Z,93.60
2022-07-25T07:58:15.857Z,86.62
2022-07-25T08:00:45.205Z,82.73
2022-07-25T08:03:13.867Z,78.18
2022-07-25T08:05:43.691Z,77.19
2022-07-25T08:08:15.533Z,77.02
2022-07-25T08:10:45.403Z,75.64
2022-07-25T08:13:15.421Z,75.23
2022-07-25T08:15:44.700Z,75.13
2022-07-25T08:18:17.679Z,74.87
2022-07-25T08:20:46.815Z,80.47
2022-07-25T08:23:16.881Z,75.81
2022-07-25T08:25:47.058Z,70.15
2022-07-25T08:28:15.663Z,77.26
2022-07-25T08:30:44.903Z,67.54
2022-07-25T08:33:16.339Z,66.11
2022-07-25T08:35:48.693Z,64.04
2022-07-25T08:38:18.441Z,63.34
2022-07-25T08:40:47.016Z,59.21
2022-07-25T08:43:17.080Z,66.59
2022-07-25T08:45:47.631Z,59.27
2022-07-25T08:48:18.351Z,59.56
2022-07-25T08:50:48.071Z,60.71
2022-07-25T08:53:36.130Z,59.13
2022-07-25T08:56:20.484Z,59.43
2022-07-25T08:58:49.834Z,58.57
2022-07-25T09:01:18.400Z,58.45
2022-07-25T09:03:46.783Z,61.28
2022-07-25T09:06:17.577Z,60.41
2022-07-25T09:08:54.827Z,61.52
2022-07-25T09:11:31.967Z,61.86
2022-07-25T09:14:02.902Z,58.01
2022-07-25T09:16:34.641Z,62.63
2022-07-25T09:19:14.521Z,62.72
2022-07-25T09:21:45.603Z,63.17
2022-07-25T09:24:18.342Z,64.14
2022-07-25T09:26:49.470Z,61.90
2022-07-25T09:29:22.986Z,58.40
2022-07-25T09:31:52.368Z,57.44
2022-07-25T09:34:38.058Z,54.59
2022-07-25T09:37:08.255Z,54.23
2022-07-25T09:39:46.308Z,61.96
2022-07-25T09:42:20.696Z,52.11
2022-07-25T09:45:06.775Z,50.93
2022-07-25T09:47:38.602Z,47.43
2022-07-25T09:50:08.704Z,48.50
2022-07-25T09:52:38.212Z,46.57
2022-07-25T09:55:10.379Z,45.00
2022-07-25T09:57:38.866Z,46.38
2022-07-25T10:00:09.646Z,47.50
2022-07-25T10:02:48.130Z,44.81
2022-07-25T10:05:20.802Z,50.62
2022-07-25T10:07:51.869Z,48.28
2022-07-25T10:10:27.861Z,48.64
2022-07-25T10:13:09.748Z,47.47
2022-07-25T10:15:47.513Z,50.71
2022-07-25T10:18:17.281Z,48.60
2022-07-25T10:20:46.662Z,48.32
2022-07-25T10:23:23.296Z,45.13
2022-07-25T10:26:09.652Z,46.65
2022-07-25T10:28:40.850Z,49.43
2022-07-25T10:31:25.030Z,48.00
2022-07-25T10:33:55.657Z,48.87
2022-07-25T10:36:25.830Z,45.61
2022-07-25T10:38:58.597Z,43.71
2022-07-25T10:41:29.998Z,47.50
2022-07-25T10:44:02.219Z,42.64
2022-07-25T10:46:32.753Z,44.58
2022-07-25T10:49:03.787Z,41.19
2022-07-25T10:51:39.459Z,41.02
2022-07-25T10:54:17.098Z,42.53
2022-07-25T10:56:58.671Z,42.83
2022-07-25T10:59:28.721Z,41.13
2022-07-25T11:01:59.579Z,41.77
2022-07-25T11:04:27.981Z,43.63
2022-07-25T11:06:56.578Z,44.62
2022-07-25T11:09:27.825Z,41.57
2022-07-25T11:11:59.573Z,40.62
2022-07-25T11:14:32.940Z,42.36
2022-07-25T11:17:14.671Z,44.26
2022-07-25T11:19:43.958Z,39.11
2022-07-25T11:22:13.357Z,39.78
2022-07-25T11:24:44.698Z,41.85
2022-07-25T11:27:21.970Z,44.14
2022-07-25T11:29:50.624Z,43.42
2022-07-25T11:32:19.267Z,39.08
2022-07-25T11:34:50.592Z,36.42
2022-07-25T11:37:19.386Z,34.12
2022-07-25T11:39:49.153Z,35.42
2022-07-25T11:42:20.942Z,35.75
2022-07-25T11:44:50.787Z,34.86
2022-07-25T11:47:28.571Z,33.06
2022-07-25T11:49:59.228Z,33.50
2022-07-25T11:52:30.063Z,34.44
2022-07-25T11:55:00.420Z,32.41
2022-07-25T11:57:32.776Z,30.69
2022-07-25T12:00:02.811Z,30.71
2022-07-25T12:02:33.340Z,30.47
2022-07-25T12:05:04.089Z,33.47
2022-07-25T12:07:40.161Z,30.23
2022-07-25T12:10:11.436Z,31.02
2022-07-25T12:12:46.058Z,31.56
2022-07-25T12:15:15.346Z,33.92
2022-07-25T12:17:44.679Z,33.60
2022-07-25T12:20:17.146Z,31.61
2022-07-25T12:22:46.220Z,30.69
2022-07-25T12:25:15.310Z,30.59
2022-07-25T12:27:45.624Z,31.76
2022-07-25T12:30:15.185Z,29.14
2022-07-25T12:32:44.096Z,28.09
2022-07-25T12:35:15.273Z,29.48
2022-07-25T12:37:44.471Z,27.31
2022-07-25T12:40:15.116Z,27.57
2022-07-25T12:42:45.776Z,26.71
2022-07-25T12:45:15.683Z,24.63
2022-07-25T12:47:45.297Z,25.38
2022-07-25T12:50:14.213Z,28.93
2022-07-25T12:52:43.357Z,26.38
2022-07-25T12:55:14.736Z,26.47
2022-07-25T12:57:45.197Z,30.38
2022-07-25T13:00:18.551Z,28.73
2022-07-25T13:02:47.092Z,29.60
2022-07-25T13:05:15.844Z,28.96
2022-07-25T13:07:44.407Z,29.82
2022-07-25T13:10:13.060Z,28.19
2022-07-25T13:12:41.446Z,29.12
2022-07-25T13:15:12.011Z,29.67
2022-07-25T13:17:41.397Z,28.36
2022-07-25T13:20:11.239Z,27.10
2022-07-25T13:22:39.925Z,29.93
2022-07-25T13:25:09.141Z,28.44
2022-07-25T13:27:39.331Z,27.51
2022-07-25T13:30:11.797Z,29.48
2022-07-25T13:32:40.145Z,28.16
2022-07-25T13:35:09.291Z,27.97
2022-07-25T13:37:37.660Z,28.73
2022-07-25T13:40:07.305Z,31.93
2022-07-25T13:42:35.725Z,29.98
2022-07-25T13:45:04.278Z,30.34
2022-07-25T13:47:35.945Z,28.19
2022-07-25T13:50:04.673Z,29.29
2022-07-25T13:52:33.147Z,29.18
2022-07-25T13:55:01.529Z,29.74
2022-07-25T13:57:30.003Z,28.83
2022-07-25T13:59:58.666Z,29.35
2022-07-25T14:02:27.223Z,31.10
2022-07-25T14:05:00.852Z,32.76
2022-07-25T14:07:32.038Z,31.78
2022-07-25T14:10:00.444Z,33.89
2022-07-25T14:12:28.922Z,32.87
2022-07-25T14:14:57.297Z,31.18
2022-07-25T14:17:29.810Z,33.15
2022-07-25T14:20:00.311Z,32.83
2022-07-25T14:22:28.787Z,33.33
2022-07-25T14:24:57.205Z,35.04
2022-07-25T14:27:25.966Z,34.42
2022-07-25T14:29:55.172Z,35.21
2022-07-25T14:32:23.635Z,33.93
2022-07-25T14:34:52.705Z,35.38
2022-07-25T14:37:23.667Z,33.71
2022-07-25T14:39:52.357Z,32.99
2022-07-25T14:42:20.737Z,31.20
2022-07-25T14:44:49.136Z,30.58
2022-07-25T14:47:17.637Z,30.15
2022-07-25T14:49:46.037Z,29.30
2022-07-25T14:52:14.979Z,28.00
2022-07-25T14:54:44.685Z,29.05
2022-07-25T14:57:13.064Z,29.42
2022-07-25T14:59:41.482Z,30.29
2022-07-25T15:02:11.168Z,31.62
2022-07-25T15:04:39.728Z,33.52
2022-07-25T15:07:08.508Z,35.27
2022-07-25T15:09:37.029Z,34.42
2022-07-25T15:12:07.641Z,33.18
2022-07-25T15:14:36.096Z,33.06
2022-07-25T15:17:04.549Z,32.22
2022-07-25T15:19:33.034Z,33.16
2022-07-25T15:22:01.482Z,30.25
2022-07-25T15:24:29.885Z,30.03
2022-07-25T15:26:58.789Z,31.69
2022-07-25T15:29:30.577Z,34.52
2022-07-25T15:31:59.007Z,33.59
2022-07-25T15:34:27.468Z,33.79
2022-07-25T15:36:56.328Z,34.52
2022-07-25T15:39:24.838Z,36.88
2022-07-25T15:41:53.301Z,35.69
2022-07-25T15:44:21.635Z,37.49
2022-07-25T15:46:51.555Z,35.35
2022-07-25T15:49:22.182Z,35.06
2022-07-25T15:51:50.944Z,33.72
2022-07-25T15:54:19.361Z,32.94
2022-07-25T15:56:47.915Z,35.39
2022-07-25T15:59:16.439Z,34.78
2022-07-25T16:01:44.953Z,36.05
2022-07-25T16:04:14.931Z,37.95
2022-07-25T16:06:43.548Z,39.67
2022-07-25T16:09:12.544Z,41.91
2022-07-25T16:11:41.034Z,40.88
2022-07-25T16:14:10.120Z,41.81
2022-07-25T16:16:38.701Z,42.20
2022-07-25T16:19:09.533Z,41.36
2022-07-25T16:21:40.107Z,41.46
2022-07-25T16:24:11.098Z,42.55
2022-07-25T16:26:39.613Z,42.86
2022-07-25T16:29:08.258Z,43.32
2022-07-25T16:31:37.070Z,40.96
2022-07-25T16:34:05.787Z,38.63
2022-07-25T16:36:34.107Z,40.25
2022-07-25T16:39:04.238Z,41.86
2022-07-25T16:41:32.865Z,42.51
2022-07-25T16:44:01.125Z,42.17
2022-07-25T16:46:29.869Z,40.84
2022-07-25T16:48:58.353Z,39.91
2022-07-25T16:51:26.712Z,41.76
2022-07-25T16:53:55.485Z,39.29
2022-07-25T16:56:26.626Z,39.82
2022-07-25T16:58:55.152Z,40.64
2022-07-25T17:01:25.033Z,39.33
2022-07-25T17:03:53.608Z,41.32
2022-07-25T17:06:21.979Z,42.06
2022-07-25T17:08:50.408Z,54.09
2022-07-25T17:11:19.149Z,67.19
2022-07-25T17:13:48.896Z,66.14
2022-07-25T17:16:17.448Z,82.17
2022-07-25T17:18:46.682Z,97.77
2022-07-25T17:21:16.897Z,100.00
2022-07-25T17:23:45.409Z,100.00
2022-07-25T17:26:13.862Z,100.00
2022-07-25T17:28:42.271Z,100.00
2022-07-25T17:31:12.233Z,100.00
2022-07-25T17:33:40.697Z,100.00
2022-07-25T17:36:09.669Z,100.00
2022-07-25T17:38:38.711Z,100.00
2022-07-25T17:41:07.700Z,100.00
2022-07-25T17:43:36.055Z,100.00
2022-07-25T17:46:04.513Z,100.00
2022-07-25T17:48:34.484Z,100.00
2022-07-25T17:51:02.995Z,100.00
2022-07-25T17:53:31.377Z,100.00
2022-07-25T17:55:59.860Z,100.00
2022-07-25T17:58:28.319Z,100.00
2022-07-25T18:01:00.998Z,100.00
2022-07-25T18:03:30.040Z,100.00
2022-07-25T18:06:00.232Z,100.00
2022-07-25T18:08:30.690Z,100.00
2022-07-25T18:10:59.151Z,100.00
2022-07-25T18:13:27.803Z,100.00
2022-07-25T18:15:56.229Z,100.00
2022-07-25T18:18:24.782Z,100.00
2022-07-25T18:20:53.103Z,100.00
2022-07-25T18:23:24.303Z,100.00
2022-07-25T18:25:54.874Z,100.00
2022-07-25T18:28:25.008Z,100.00
2022-07-25T18:30:55.145Z,100.00
2022-07-25T18:33:23.542Z,100.00
2022-07-25T18:35:52.150Z,100.00
2022-07-25T18:38:20.778Z,100.00
2022-07-25T18:41:06.499Z,100.00
2022-07-25T18:43:39.215Z,100.00
2022-07-25T18:46:07.920Z,100.00
2022-07-25T18:48:38.122Z,100.00
2022-07-25T18:51:06.771Z,100.00
2022-07-25T18:53:35.552Z,100.00
2022-07-25T18:56:06.962Z,98.73
2022-07-25T18:58:35.917Z,99.55
2022-07-25T19:01:04.326Z,100.00
2022-07-25T19:03:34.973Z,100.00
2022-07-25T19:06:03.835Z,100.00
2022-07-25T19:08:32.401Z,100.00
2022-07-25T19:11:01.092Z,100.00
2022-07-25T19:13:48.832Z,100.00
2022-07-25T19:16:18.815Z,100.00
2022-07-25T19:18:47.433Z,100.00
2022-07-25T19:21:15.861Z,100.00
2022-07-25T19:23:50.149Z,100.00
2022-07-25T19:26:19.630Z,100.00
2022-07-25T19:28:49.565Z,100.00
2022-07-25T19:31:18.414Z,100.00
2022-07-25T19:33:47.210Z,100.00
2022-07-25T19:36:15.622Z,100.00
2022-07-25T19:38:44.059Z,100.00
2022-07-25T19:41:12.722Z,100.00
2022-07-25T19:43:41.214Z,100.00
2022-07-25T19:46:11.073Z,100.00
2022-07-25T19:48:39.683Z,100.00
2022-07-25T19:51:08.683Z,100.00
2022-07-25T19:53:37.575Z,100.00
2022-07-25T19:56:06.804Z,100.00
2022-07-25T19:58:38.668Z,100.00
2022-07-25T20:01:07.765Z,100.00
2022-07-25T20:03:37.784Z,100.00
2022-07-25T20:06:08.457Z,100.00
2022-07-25T20:08:39.592Z,100.00
2022-07-25T20:11:08.659Z,100.00
2022-07-25T20:13:37.244Z,100.00
2022-07-25T20:16:06.439Z,100.00
2022-07-25T20:18:35.245Z,100.00
2022-07-25T20:21:05.211Z,100.00
2022-07-25T20:23:34.153Z,100.00
2022-07-25T20:26:04.313Z,100.00
2022-07-25T20:28:33.414Z,100.00
2022-07-25T20:31:03.055Z,100.00
2022-07-25T20:33:32.188Z,100.00
2022-07-25T20:36:00.850Z,100.00
2022-07-25T20:38:32.393Z,100.00
2022-07-25T20:41:01.369Z,100.00
2022-07-25T20:43:33.567Z,100.00
2022-07-25T20:46:05.061Z,100.00
2022-07-25T20:48:37.539Z,100.00
2022-07-25T20:51:06.268Z,100.00
2022-07-25T20:53:36.059Z,100.00
2022-07-25T20:56:04.545Z,100.00
2022-07-25T20:58:33.039Z,100.00
2022-07-25T21:01:01.495Z,100.00
2022-07-25T21:03:31.099Z,100.00
2022-07-25T21:06:01.491Z,100.00
2022-07-25T21:08:29.889Z,100.00
2022-07-25T21:11:00.001Z,100.00
2022-07-25T21:13:30.807Z,100.00
2022-07-25T21:16:01.382Z,100.00
2022-07-25T21:18:29.781Z,100.00
2022-07-25T21:20:58.665Z,100.00
2022-07-25T21:23:27.599Z,100.00
2022-07-25T21:25:55.983Z,100.00
2022-07-25T21:28:26.032Z,100.00
2022-07-25T21:30:54.634Z,100.00
2022-07-25T21:33:23.011Z,100.00
2022-07-25T21:35:53.126Z,100.00
2022-07-25T21:38:26.681Z,100.00
2022-07-25T21:40:57.042Z,100.00
2022-07-25T21:43:26.857Z,100.00
2022-07-25T21:45:55.486Z,100.00
2022-07-25T21:48:45.126Z,100.00
2022-07-25T21:51:19.228Z,100.00
2022-07-25T21:53:51.971Z,100.00
2022-07-25T21:56:21.081Z,100.00
2022-07-25T21:58:50.983Z,100.00
2022-07-25T22:01:21.622Z,100.00
2022-07-25T22:03:50.256Z,100.00
2022-07-25T22:06:19.349Z,100.00
2022-07-25T22:08:47.978Z,100.00
2022-07-25T22:11:38.540Z,100.00
2022-07-25T22:14:09.016Z,100.00
2022-07-25T22:16:37.560Z,100.00
2022-07-25T22:19:06.436Z,100.00
2022-07-25T22:21:35.371Z,100.00
2022-07-25T22:24:03.829Z,100.00
2022-07-25T22:26:32.180Z,100.00
2022-07-25T22:29:00.596Z,100.00
2022-07-25T22:31:31.373Z,100.00
2022-07-25T22:33:59.768Z,100.00
2022-07-25T22:36:28.123Z,100.00
2022-07-25T22:38:56.699Z,100.00
2022-07-25T22:41:25.098Z,100.00
2022-07-25T22:43:58.873Z,100.00
2022-07-25T22:46:30.583Z,100.00
2022-07-25T22:49:00.276Z,100.00
2022-07-25T22:51:29.760Z,100.00
2022-07-25T22:53:58.462Z,100.00
2022-07-25T22:56:27.132Z,100.00
2022-07-25T22:58:56.293Z,100.00
2022-07-25T23:01:25.397Z,100.00
2022-07-25T23:03:55.192Z,100.00
2022-07-25T23:06:23.749Z,100.00
2022-07-25T23:08:53.051Z,100.00
2022-07-25T23:11:21.466Z,100.00
2022-07-25T23:13:49.846Z,100.00
2022-07-25T23:16:18.239Z,100.00
2022-07-25T23:18:46.819Z,100.00
2022-07-25T23:21:16.578Z,100.00
2022-07-25T23:23:45.014Z,100.00
2022-07-25T23:26:13.347Z,100.00
2022-07-25T23:28:41.763Z,100.00
2022-07-25T23:31:10.202Z,100.00
2022-07-25T23:33:38.620Z,100.00
2022-07-25T23:36:07.377Z,100.00
2022-07-25T23:38:37.221Z,100.00
2022-07-25T23:41:06.470Z,100.00
2022-07-25T23:43:59.197Z,100.00
2022-07-25T23:46:27.701Z,100.00
2022-07-25T23:48:58.326Z,100.00
2022-07-25T23:51:26.714Z,100.00
2022-07-25T23:53:56.508Z,100.00
2022-07-25T23:56:25.013Z,100.00
2022-07-25T23:58:53.373Z,100.00
